sensor_id;sensor_type;location;lat;lon;timestamp;P1;durP1;ratioP1;P2;durP2;ratioP2
26060;SDS011;36331;51.378;0.018;2023-04-06T00:01:47;35.83;;;14.50;;
26060;SDS011;36331;51.378;0.018;2023-04-06T00:04:16;31.20;;;14.27;;
26060;SDS011;36331;51.378;0.018;2023-04-06T00:06:46;36.15;;;14.02;;
26060;SDS011;36331;51.378;0.018;2023-04-06T00:09:15;35.75;;;14.63;;
26060;SDS011;36331;51.378;0.018;2023-04-06T00:11:45;32.35;;;13.70;;
26060;SDS011;36331;51.378;0.018;2023-04-06T00:14:16;29.85;;;12.52;;
26060;SDS011;36331;51.378;0.018;2023-04-06T00:16:45;32.50;;;13.45;;
26060;SDS011;36331;51.378;0.018;2023-04-06T00:19:14;27.85;;;12.32;;
26060;SDS011;36331;51.378;0.018;2023-04-06T00:21:44;33.60;;;12.85;;
26060;SDS011;36331;51.378;0.018;2023-04-06T00:24:14;31.33;;;13.15;;
26060;SDS011;36331;51.378;0.018;2023-04-06T00:26:44;33.55;;;13.90;;
26060;SDS011;36331;51.378;0.018;2023-04-06T00:29:15;30.05;;;11.40;;
26060;SDS011;36331;51.378;0.018;2023-04-06T00:31:44;34.78;;;14.10;;
26060;SDS011;36331;51.378;0.018;2023-04-06T00:34:14;28.90;;;12.13;;
26060;SDS011;36331;51.378;0.018;2023-04-06T00:36:53;33.92;;;14.00;;
26060;SDS011;36331;51.378;0.018;2023-04-06T00:39:22;29.95;;;11.93;;
26060;SDS011;36331;51.378;0.018;2023-04-06T00:41:52;33.75;;;11.88;;
26060;SDS011;36331;51.378;0.018;2023-04-06T00:44:25;30.58;;;11.88;;
26060;SDS011;36331;51.378;0.018;2023-04-06T00:46:54;34.38;;;11.85;;
26060;SDS011;36331;51.378;0.018;2023-04-06T00:49:23;30.45;;;11.50;;
26060;SDS011;36331;51.378;0.018;2023-04-06T00:51:53;31.98;;;11.13;;
26060;SDS011;36331;51.378;0.018;2023-04-06T00:54:22;28.70;;;10.48;;
26060;SDS011;36331;51.378;0.018;2023-04-06T00:56:52;28.23;;;10.38;;
26060;SDS011;36331;51.378;0.018;2023-04-06T00:59:24;31.55;;;11.30;;
26060;SDS011;36331;51.378;0.018;2023-04-06T01:01:57;37.03;;;11.13;;
26060;SDS011;36331;51.378;0.018;2023-04-06T01:04:40;26.88;;;9.10;;
26060;SDS011;36331;51.378;0.018;2023-04-06T01:07:19;25.48;;;8.80;;
26060;SDS011;36331;51.378;0.018;2023-04-06T01:10:03;25.92;;;8.88;;
26060;SDS011;36331;51.378;0.018;2023-04-06T01:12:34;25.50;;;8.40;;
26060;SDS011;36331;51.378;0.018;2023-04-06T01:15:09;30.45;;;9.80;;
26060;SDS011;36331;51.378;0.018;2023-04-06T01:17:42;19.05;;;6.60;;
26060;SDS011;36331;51.378;0.018;2023-04-06T01:20:16;20.00;;;6.68;;
26060;SDS011;36331;51.378;0.018;2023-04-06T01:22:47;20.65;;;6.65;;
26060;SDS011;36331;51.378;0.018;2023-04-06T01:25:19;20.98;;;6.47;;
26060;SDS011;36331;51.378;0.018;2023-04-06T01:28:06;26.17;;;7.85;;
26060;SDS011;36331;51.378;0.018;2023-04-06T01:30:52;20.42;;;6.55;;
26060;SDS011;36331;51.378;0.018;2023-04-06T01:33:38;23.35;;;7.15;;
26060;SDS011;36331;51.378;0.018;2023-04-06T01:36:11;22.02;;;6.65;;
26060;SDS011;36331;51.378;0.018;2023-04-06T01:38:43;17.05;;;5.85;;
26060;SDS011;36331;51.378;0.018;2023-04-06T01:41:18;18.13;;;5.75;;
26060;SDS011;36331;51.378;0.018;2023-04-06T01:43:51;24.30;;;7.32;;
26060;SDS011;36331;51.378;0.018;2023-04-06T01:46:26;28.65;;;8.10;;
26060;SDS011;36331;51.378;0.018;2023-04-06T01:48:59;36.33;;;10.20;;
26060;SDS011;36331;51.378;0.018;2023-04-06T01:51:37;18.15;;;5.75;;
26060;SDS011;36331;51.378;0.018;2023-04-06T01:54:12;19.85;;;6.57;;
26060;SDS011;36331;51.378;0.018;2023-04-06T01:57:10;20.63;;;6.30;;
26060;SDS011;36331;51.378;0.018;2023-04-06T01:59:47;19.15;;;6.03;;
26060;SDS011;36331;51.378;0.018;2023-04-06T02:02:28;15.85;;;5.22;;
26060;SDS011;36331;51.378;0.018;2023-04-06T02:05:07;23.13;;;6.53;;
26060;SDS011;36331;51.378;0.018;2023-04-06T02:07:38;22.75;;;6.18;;
26060;SDS011;36331;51.378;0.018;2023-04-06T02:10:12;22.05;;;6.53;;
26060;SDS011;36331;51.378;0.018;2023-04-06T02:12:48;15.55;;;5.13;;
26060;SDS011;36331;51.378;0.018;2023-04-06T02:15:24;16.92;;;5.40;;
26060;SDS011;36331;51.378;0.018;2023-04-06T02:17:53;20.27;;;5.88;;
26060;SDS011;36331;51.378;0.018;2023-04-06T02:20:24;19.38;;;5.75;;
26060;SDS011;36331;51.378;0.018;2023-04-06T02:22:53;18.77;;;5.55;;
26060;SDS011;36331;51.378;0.018;2023-04-06T02:25:24;22.10;;;6.28;;
26060;SDS011;36331;51.378;0.018;2023-04-06T02:27:54;21.42;;;6.10;;
26060;SDS011;36331;51.378;0.018;2023-04-06T02:30:23;15.70;;;4.82;;
26060;SDS011;36331;51.378;0.018;2023-04-06T02:32:52;20.17;;;5.88;;
26060;SDS011;36331;51.378;0.018;2023-04-06T02:35:24;15.98;;;4.75;;
26060;SDS011;36331;51.378;0.018;2023-04-06T02:37:55;17.13;;;4.93;;
26060;SDS011;36331;51.378;0.018;2023-04-06T02:40:28;13.52;;;4.32;;
26060;SDS011;36331;51.378;0.018;2023-04-06T02:43:05;22.30;;;6.47;;
26060;SDS011;36331;51.378;0.018;2023-04-06T02:45:35;22.70;;;6.78;;
26060;SDS011;36331;51.378;0.018;2023-04-06T02:48:05;20.30;;;6.18;;
26060;SDS011;36331;51.378;0.018;2023-04-06T02:50:36;19.25;;;6.10;;
26060;SDS011;36331;51.378;0.018;2023-04-06T02:53:07;18.60;;;6.35;;
26060;SDS011;36331;51.378;0.018;2023-04-06T02:55:40;15.50;;;5.90;;
26060;SDS011;36331;51.378;0.018;2023-04-06T02:58:10;17.60;;;6.15;;
26060;SDS011;36331;51.378;0.018;2023-04-06T03:00:45;21.80;;;7.15;;
26060;SDS011;36331;51.378;0.018;2023-04-06T03:03:15;18.83;;;5.90;;
26060;SDS011;36331;51.378;0.018;2023-04-06T03:05:46;16.92;;;6.05;;
26060;SDS011;36331;51.378;0.018;2023-04-06T03:08:22;17.55;;;5.65;;
26060;SDS011;36331;51.378;0.018;2023-04-06T03:10:52;16.98;;;5.38;;
26060;SDS011;36331;51.378;0.018;2023-04-06T03:13:29;16.02;;;5.00;;
26060;SDS011;36331;51.378;0.018;2023-04-06T03:15:59;21.58;;;6.25;;
26060;SDS011;36331;51.378;0.018;2023-04-06T03:18:29;17.58;;;4.93;;
26060;SDS011;36331;51.378;0.018;2023-04-06T03:20:59;25.98;;;7.00;;
26060;SDS011;36331;51.378;0.018;2023-04-06T03:23:37;18.98;;;4.95;;
26060;SDS011;36331;51.378;0.018;2023-04-06T03:26:07;23.00;;;5.90;;
26060;SDS011;36331;51.378;0.018;2023-04-06T03:28:37;23.13;;;6.03;;
26060;SDS011;36331;51.378;0.018;2023-04-06T03:31:07;18.30;;;5.05;;
26060;SDS011;36331;51.378;0.018;2023-04-06T03:33:44;16.02;;;4.05;;
26060;SDS011;36331;51.378;0.018;2023-04-06T03:36:20;13.57;;;3.45;;
26060;SDS011;36331;51.378;0.018;2023-04-06T03:38:50;13.45;;;3.95;;
26060;SDS011;36331;51.378;0.018;2023-04-06T03:41:22;16.38;;;4.10;;
26060;SDS011;36331;51.378;0.018;2023-04-06T03:44:10;15.50;;;3.90;;
26060;SDS011;36331;51.378;0.018;2023-04-06T03:46:44;14.45;;;3.88;;
26060;SDS011;36331;51.378;0.018;2023-04-06T03:49:13;15.10;;;4.13;;
26060;SDS011;36331;51.378;0.018;2023-04-06T03:51:50;21.20;;;5.60;;
26060;SDS011;36331;51.378;0.018;2023-04-06T03:54:19;19.13;;;5.07;;
26060;SDS011;36331;51.378;0.018;2023-04-06T03:56:49;18.85;;;5.28;;
26060;SDS011;36331;51.378;0.018;2023-04-06T03:59:18;19.13;;;5.93;;
26060;SDS011;36331;51.378;0.018;2023-04-06T04:01:50;17.92;;;5.45;;
26060;SDS011;36331;51.378;0.018;2023-04-06T04:04:26;15.80;;;5.38;;
26060;SDS011;36331;51.378;0.018;2023-04-06T04:06:57;19.00;;;6.25;;
26060;SDS011;36331;51.378;0.018;2023-04-06T04:09:26;18.75;;;6.53;;
26060;SDS011;36331;51.378;0.018;2023-04-06T04:11:57;22.63;;;7.60;;
26060;SDS011;36331;51.378;0.018;2023-04-06T04:14:31;17.40;;;6.63;;
26060;SDS011;36331;51.378;0.018;2023-04-06T04:17:10;27.33;;;9.23;;
26060;SDS011;36331;51.378;0.018;2023-04-06T04:19:48;27.00;;;9.43;;
26060;SDS011;36331;51.378;0.018;2023-04-06T04:22:27;27.30;;;9.20;;
26060;SDS011;36331;51.378;0.018;2023-04-06T04:24:56;27.55;;;10.23;;
26060;SDS011;36331;51.378;0.018;2023-04-06T04:27:52;31.10;;;11.03;;
26060;SDS011;36331;51.378;0.018;2023-04-06T04:33:07;35.20;;;12.20;;
26060;SDS011;36331;51.378;0.018;2023-04-06T04:35:37;31.02;;;10.75;;
26060;SDS011;36331;51.378;0.018;2023-04-06T04:38:07;30.17;;;11.02;;
26060;SDS011;36331;51.378;0.018;2023-04-06T04:40:40;22.92;;;9.30;;
26060;SDS011;36331;51.378;0.018;2023-04-06T04:43:12;24.17;;;9.93;;
26060;SDS011;36331;51.378;0.018;2023-04-06T04:45:41;27.23;;;10.57;;
26060;SDS011;36331;51.378;0.018;2023-04-06T04:48:21;22.90;;;9.63;;
26060;SDS011;36331;51.378;0.018;2023-04-06T04:50:55;27.80;;;10.73;;
26060;SDS011;36331;51.378;0.018;2023-04-06T04:53:29;24.45;;;9.80;;
26060;SDS011;36331;51.378;0.018;2023-04-06T04:56:06;29.55;;;10.52;;
26060;SDS011;36331;51.378;0.018;2023-04-06T04:58:37;27.85;;;10.27;;
26060;SDS011;36331;51.378;0.018;2023-04-06T05:01:07;33.78;;;12.25;;
26060;SDS011;36331;51.378;0.018;2023-04-06T05:03:38;31.17;;;11.55;;
26060;SDS011;36331;51.378;0.018;2023-04-06T05:06:13;28.42;;;11.05;;
26060;SDS011;36331;51.378;0.018;2023-04-06T05:08:43;28.95;;;11.25;;
26060;SDS011;36331;51.378;0.018;2023-04-06T05:11:12;26.40;;;10.35;;
26060;SDS011;36331;51.378;0.018;2023-04-06T05:13:47;25.63;;;9.88;;
26060;SDS011;36331;51.378;0.018;2023-04-06T05:16:20;25.48;;;10.27;;
26060;SDS011;36331;51.378;0.018;2023-04-06T05:18:52;23.77;;;9.85;;
26060;SDS011;36331;51.378;0.018;2023-04-06T05:21:27;24.48;;;10.18;;
26060;SDS011;36331;51.378;0.018;2023-04-06T05:24:04;31.20;;;11.90;;
26060;SDS011;36331;51.378;0.018;2023-04-06T05:26:33;37.33;;;13.13;;
26060;SDS011;36331;51.378;0.018;2023-04-06T05:29:11;33.63;;;12.20;;
26060;SDS011;36331;51.378;0.018;2023-04-06T05:31:40;27.88;;;11.02;;
26060;SDS011;36331;51.378;0.018;2023-04-06T05:34:10;27.23;;;10.27;;
26060;SDS011;36331;51.378;0.018;2023-04-06T05:36:39;25.23;;;10.25;;
26060;SDS011;36331;51.378;0.018;2023-04-06T05:39:17;25.65;;;11.18;;
26060;SDS011;36331;51.378;0.018;2023-04-06T05:41:51;32.78;;;12.00;;
26060;SDS011;36331;51.378;0.018;2023-04-06T05:44:33;32.40;;;11.57;;
26060;SDS011;36331;51.378;0.018;2023-04-06T05:47:07;30.27;;;10.85;;
26060;SDS011;36331;51.378;0.018;2023-04-06T05:49:39;28.40;;;10.57;;
26060;SDS011;36331;51.378;0.018;2023-04-06T05:52:17;31.05;;;11.00;;
26060;SDS011;36331;51.378;0.018;2023-04-06T05:54:49;34.75;;;12.20;;
26060;SDS011;36331;51.378;0.018;2023-04-06T05:57:19;27.35;;;9.90;;
26060;SDS011;36331;51.378;0.018;2023-04-06T05:59:50;33.28;;;11.93;;
26060;SDS011;36331;51.378;0.018;2023-04-06T06:02:22;36.78;;;12.90;;
26060;SDS011;36331;51.378;0.018;2023-04-06T06:04:54;30.25;;;11.50;;
26060;SDS011;36331;51.378;0.018;2023-04-06T06:07:28;27.58;;;9.82;;
26060;SDS011;36331;51.378;0.018;2023-04-06T06:10:01;32.80;;;11.85;;
26060;SDS011;36331;51.378;0.018;2023-04-06T06:12:32;33.15;;;10.93;;
26060;SDS011;36331;51.378;0.018;2023-04-06T06:15:04;28.10;;;10.43;;
26060;SDS011;36331;51.378;0.018;2023-04-06T06:17:38;30.85;;;10.95;;
26060;SDS011;36331;51.378;0.018;2023-04-06T06:20:08;36.28;;;12.20;;
26060;SDS011;36331;51.378;0.018;2023-04-06T06:22:37;30.85;;;11.27;;
26060;SDS011;36331;51.378;0.018;2023-04-06T06:25:11;35.58;;;11.85;;
26060;SDS011;36331;51.378;0.018;2023-04-06T06:27:40;24.45;;;9.38;;
26060;SDS011;36331;51.378;0.018;2023-04-06T06:30:11;28.50;;;10.77;;
26060;SDS011;36331;51.378;0.018;2023-04-06T06:32:43;31.45;;;11.52;;
26060;SDS011;36331;51.378;0.018;2023-04-06T06:35:13;24.75;;;9.02;;
26060;SDS011;36331;51.378;0.018;2023-04-06T06:37:42;43.53;;;14.10;;
26060;SDS011;36331;51.378;0.018;2023-04-06T06:40:14;26.88;;;10.00;;
26060;SDS011;36331;51.378;0.018;2023-04-06T06:42:47;31.02;;;10.63;;
26060;SDS011;36331;51.378;0.018;2023-04-06T06:45:25;24.15;;;9.52;;
26060;SDS011;36331;51.378;0.018;2023-04-06T06:47:57;34.05;;;10.93;;
26060;SDS011;36331;51.378;0.018;2023-04-06T06:50:26;28.10;;;9.75;;
26060;SDS011;36331;51.378;0.018;2023-04-06T06:52:55;28.65;;;10.05;;
26060;SDS011;36331;51.378;0.018;2023-04-06T06:55:24;21.73;;;7.88;;
26060;SDS011;36331;51.378;0.018;2023-04-06T06:57:54;37.35;;;11.15;;
26060;SDS011;36331;51.378;0.018;2023-04-06T07:00:26;31.63;;;9.60;;
26060;SDS011;36331;51.378;0.018;2023-04-06T07:02:56;28.95;;;8.52;;
26060;SDS011;36331;51.378;0.018;2023-04-06T07:05:25;29.88;;;9.93;;
26060;SDS011;36331;51.378;0.018;2023-04-06T07:07:57;24.55;;;7.65;;
26060;SDS011;36331;51.378;0.018;2023-04-06T07:10:26;22.45;;;7.80;;
26060;SDS011;36331;51.378;0.018;2023-04-06T07:12:55;24.80;;;7.97;;
26060;SDS011;36331;51.378;0.018;2023-04-06T07:15:26;21.52;;;7.20;;
26060;SDS011;36331;51.378;0.018;2023-04-06T07:17:56;25.15;;;8.52;;
26060;SDS011;36331;51.378;0.018;2023-04-06T07:20:26;23.70;;;7.95;;
26060;SDS011;36331;51.378;0.018;2023-04-06T07:22:56;29.63;;;9.18;;
26060;SDS011;36331;51.378;0.018;2023-04-06T07:25:25;25.98;;;8.48;;
26060;SDS011;36331;51.378;0.018;2023-04-06T07:27:54;31.73;;;9.88;;
26060;SDS011;36331;51.378;0.018;2023-04-06T07:30:24;28.13;;;8.93;;
26060;SDS011;36331;51.378;0.018;2023-04-06T07:33:00;27.35;;;8.20;;
26060;SDS011;36331;51.378;0.018;2023-04-06T07:37:59;66.20;;;17.23;;
26060;SDS011;36331;51.378;0.018;2023-04-06T07:40:28;24.27;;;7.68;;
26060;SDS011;36331;51.378;0.018;2023-04-06T07:42:59;30.52;;;9.25;;
26060;SDS011;36331;51.378;0.018;2023-04-06T07:45:29;25.20;;;7.65;;
26060;SDS011;36331;51.378;0.018;2023-04-06T07:48:03;26.00;;;8.13;;
26060;SDS011;36331;51.378;0.018;2023-04-06T07:50:34;16.25;;;5.55;;
26060;SDS011;36331;51.378;0.018;2023-04-06T07:53:04;21.50;;;6.15;;
26060;SDS011;36331;51.378;0.018;2023-04-06T07:55:34;20.27;;;6.50;;
26060;SDS011;36331;51.378;0.018;2023-04-06T07:58:04;26.63;;;7.63;;
26060;SDS011;36331;51.378;0.018;2023-04-06T08:00:33;20.77;;;6.30;;
26060;SDS011;36331;51.378;0.018;2023-04-06T08:03:04;24.75;;;7.25;;
26060;SDS011;36331;51.378;0.018;2023-04-06T08:05:34;21.13;;;5.95;;
26060;SDS011;36331;51.378;0.018;2023-04-06T08:08:03;26.23;;;7.38;;
26060;SDS011;36331;51.378;0.018;2023-04-06T08:10:32;15.85;;;4.68;;
26060;SDS011;36331;51.378;0.018;2023-04-06T08:13:02;26.13;;;7.07;;
26060;SDS011;36331;51.378;0.018;2023-04-06T08:15:32;19.33;;;4.97;;
26060;SDS011;36331;51.378;0.018;2023-04-06T08:18:01;29.83;;;7.78;;
26060;SDS011;36331;51.378;0.018;2023-04-06T08:20:31;24.80;;;6.45;;
26060;SDS011;36331;51.378;0.018;2023-04-06T08:23:01;18.77;;;4.85;;
26060;SDS011;36331;51.378;0.018;2023-04-06T08:25:31;24.90;;;6.53;;
26060;SDS011;36331;51.378;0.018;2023-04-06T08:28:00;26.30;;;6.75;;
26060;SDS011;36331;51.378;0.018;2023-04-06T08:30:29;27.70;;;6.40;;
26060;SDS011;36331;51.378;0.018;2023-04-06T08:33:05;29.98;;;7.25;;
26060;SDS011;36331;51.378;0.018;2023-04-06T08:35:39;24.85;;;6.18;;
26060;SDS011;36331;51.378;0.018;2023-04-06T08:38:09;29.27;;;7.22;;
26060;SDS011;36331;51.378;0.018;2023-04-06T08:40:38;21.23;;;4.93;;
26060;SDS011;36331;51.378;0.018;2023-04-06T08:43:13;22.95;;;5.60;;
26060;SDS011;36331;51.378;0.018;2023-04-06T08:45:43;22.55;;;5.63;;
26060;SDS011;36331;51.378;0.018;2023-04-06T08:48:12;24.30;;;5.47;;
26060;SDS011;36331;51.378;0.018;2023-04-06T08:50:42;22.27;;;6.20;;
26060;SDS011;36331;51.378;0.018;2023-04-06T08:53:12;24.90;;;5.75;;
26060;SDS011;36331;51.378;0.018;2023-04-06T08:55:41;21.23;;;5.05;;
26060;SDS011;36331;51.378;0.018;2023-04-06T08:58:12;25.38;;;6.10;;
26060;SDS011;36331;51.378;0.018;2023-04-06T09:00:53;32.10;;;7.57;;
26060;SDS011;36331;51.378;0.018;2023-04-06T09:03:23;24.48;;;6.55;;
26060;SDS011;36331;51.378;0.018;2023-04-06T09:05:58;31.55;;;7.45;;
26060;SDS011;36331;51.378;0.018;2023-04-06T09:08:28;26.92;;;6.40;;
26060;SDS011;36331;51.378;0.018;2023-04-06T09:10:57;31.25;;;7.07;;
26060;SDS011;36331;51.378;0.018;2023-04-06T09:13:27;30.73;;;7.00;;
26060;SDS011;36331;51.378;0.018;2023-04-06T09:15:59;30.80;;;7.68;;
26060;SDS011;36331;51.378;0.018;2023-04-06T09:18:29;24.70;;;6.10;;
26060;SDS011;36331;51.378;0.018;2023-04-06T09:21:02;28.52;;;6.90;;
26060;SDS011;36331;51.378;0.018;2023-04-06T09:23:31;29.83;;;7.28;;
26060;SDS011;36331;51.378;0.018;2023-04-06T09:26:07;32.60;;;8.10;;
26060;SDS011;36331;51.378;0.018;2023-04-06T09:28:43;31.05;;;7.43;;
26060;SDS011;36331;51.378;0.018;2023-04-06T09:31:13;25.15;;;5.60;;
26060;SDS011;36331;51.378;0.018;2023-04-06T09:33:44;24.98;;;6.57;;
26060;SDS011;36331;51.378;0.018;2023-04-06T09:36:15;25.85;;;5.32;;
26060;SDS011;36331;51.378;0.018;2023-04-06T09:38:55;23.20;;;5.65;;
26060;SDS011;36331;51.378;0.018;2023-04-06T09:41:24;28.13;;;6.80;;
26060;SDS011;36331;51.378;0.018;2023-04-06T09:44:01;30.55;;;7.25;;
26060;SDS011;36331;51.378;0.018;2023-04-06T09:46:31;27.98;;;6.93;;
26060;SDS011;36331;51.378;0.018;2023-04-06T09:49:17;30.83;;;7.65;;
26060;SDS011;36331;51.378;0.018;2023-04-06T09:51:51;22.65;;;5.70;;
26060;SDS011;36331;51.378;0.018;2023-04-06T09:54:22;24.70;;;6.35;;
26060;SDS011;36331;51.378;0.018;2023-04-06T09:56:54;24.90;;;6.60;;
26060;SDS011;36331;51.378;0.018;2023-04-06T09:59:28;28.70;;;6.45;;
26060;SDS011;36331;51.378;0.018;2023-04-06T10:02:00;39.33;;;8.07;;
26060;SDS011;36331;51.378;0.018;2023-04-06T10:04:32;29.33;;;7.15;;
26060;SDS011;36331;51.378;0.018;2023-04-06T10:09:32;27.48;;;6.78;;
26060;SDS011;36331;51.378;0.018;2023-04-06T10:12:04;34.00;;;8.15;;
26060;SDS011;36331;51.378;0.018;2023-04-06T10:14:33;27.17;;;6.50;;
26060;SDS011;36331;51.378;0.018;2023-04-06T10:17:06;29.63;;;7.75;;
26060;SDS011;36331;51.378;0.018;2023-04-06T10:19:39;32.63;;;8.52;;
26060;SDS011;36331;51.378;0.018;2023-04-06T10:22:10;26.02;;;7.07;;
26060;SDS011;36331;51.378;0.018;2023-04-06T10:24:45;24.75;;;6.68;;
26060;SDS011;36331;51.378;0.018;2023-04-06T10:27:15;30.92;;;8.25;;
26060;SDS011;36331;51.378;0.018;2023-04-06T10:29:45;23.58;;;5.75;;
26060;SDS011;36331;51.378;0.018;2023-04-06T10:32:31;31.92;;;7.15;;
26060;SDS011;36331;51.378;0.018;2023-04-06T10:35:04;27.50;;;7.28;;
26060;SDS011;36331;51.378;0.018;2023-04-06T10:37:49;28.23;;;7.07;;
26060;SDS011;36331;51.378;0.018;2023-04-06T10:40:21;24.67;;;6.22;;
26060;SDS011;36331;51.378;0.018;2023-04-06T10:45:24;22.30;;;5.22;;
26060;SDS011;36331;51.378;0.018;2023-04-06T10:48:01;20.90;;;5.53;;
26060;SDS011;36331;51.378;0.018;2023-04-06T10:50:34;22.83;;;5.68;;
26060;SDS011;36331;51.378;0.018;2023-04-06T10:53:04;22.60;;;6.22;;
26060;SDS011;36331;51.378;0.018;2023-04-06T10:55:35;21.58;;;5.72;;
26060;SDS011;36331;51.378;0.018;2023-04-06T10:58:15;25.85;;;6.47;;
26060;SDS011;36331;51.378;0.018;2023-04-06T11:00:49;18.95;;;4.68;;
26060;SDS011;36331;51.378;0.018;2023-04-06T11:03:21;17.98;;;5.07;;
26060;SDS011;36331;51.378;0.018;2023-04-06T11:05:50;22.00;;;5.15;;
26060;SDS011;36331;51.378;0.018;2023-04-06T11:08:27;27.45;;;6.88;;
26060;SDS011;36331;51.378;0.018;2023-04-06T11:11:05;25.08;;;5.85;;
26060;SDS011;36331;51.378;0.018;2023-04-06T11:13:38;22.00;;;5.95;;
26060;SDS011;36331;51.378;0.018;2023-04-06T11:16:12;22.13;;;5.47;;
26060;SDS011;36331;51.378;0.018;2023-04-06T11:18:51;27.98;;;7.28;;
26060;SDS011;36331;51.378;0.018;2023-04-06T11:21:31;29.70;;;7.05;;
26060;SDS011;36331;51.378;0.018;2023-04-06T11:24:07;27.15;;;6.43;;
26060;SDS011;36331;51.378;0.018;2023-04-06T11:26:39;23.83;;;5.78;;
26060;SDS011;36331;51.378;0.018;2023-04-06T11:29:08;20.23;;;5.38;;
26060;SDS011;36331;51.378;0.018;2023-04-06T11:31:41;22.13;;;5.47;;
26060;SDS011;36331;51.378;0.018;2023-04-06T11:34:12;20.80;;;5.63;;
26060;SDS011;36331;51.378;0.018;2023-04-06T11:36:42;20.95;;;5.60;;
26060;SDS011;36331;51.378;0.018;2023-04-06T11:39:13;20.65;;;5.32;;
26060;SDS011;36331;51.378;0.018;2023-04-06T11:41:48;15.52;;;4.03;;
26060;SDS011;36331;51.378;0.018;2023-04-06T11:44:28;19.60;;;4.85;;
26060;SDS011;36331;51.378;0.018;2023-04-06T11:47:02;18.40;;;4.73;;
26060;SDS011;36331;51.378;0.018;2023-04-06T11:49:32;16.73;;;4.40;;
26060;SDS011;36331;51.378;0.018;2023-04-06T11:52:02;22.95;;;5.57;;
26060;SDS011;36331;51.378;0.018;2023-04-06T11:54:32;19.33;;;4.65;;
26060;SDS011;36331;51.378;0.018;2023-04-06T11:57:03;18.75;;;4.72;;
26060;SDS011;36331;51.378;0.018;2023-04-06T11:59:33;14.40;;;3.95;;
26060;SDS011;36331;51.378;0.018;2023-04-06T12:02:06;20.95;;;5.50;;
26060;SDS011;36331;51.378;0.018;2023-04-06T12:04:35;16.25;;;4.20;;
26060;SDS011;36331;51.378;0.018;2023-04-06T12:07:05;21.02;;;4.97;;
26060;SDS011;36331;51.378;0.018;2023-04-06T12:09:34;17.92;;;4.55;;
26060;SDS011;36331;51.378;0.018;2023-04-06T12:12:05;21.58;;;5.43;;
26060;SDS011;36331;51.378;0.018;2023-04-06T12:14:34;17.73;;;4.70;;
26060;SDS011;36331;51.378;0.018;2023-04-06T12:17:06;24.50;;;6.40;;
26060;SDS011;36331;51.378;0.018;2023-04-06T12:19:35;19.70;;;5.30;;
26060;SDS011;36331;51.378;0.018;2023-04-06T12:22:04;20.08;;;5.38;;
26060;SDS011;36331;51.378;0.018;2023-04-06T12:24:34;15.75;;;4.28;;
26060;SDS011;36331;51.378;0.018;2023-04-06T12:27:04;18.85;;;5.00;;
26060;SDS011;36331;51.378;0.018;2023-04-06T12:29:36;19.30;;;4.38;;
26060;SDS011;36331;51.378;0.018;2023-04-06T12:32:06;19.45;;;5.40;;
26060;SDS011;36331;51.378;0.018;2023-04-06T12:34:38;18.88;;;5.00;;
26060;SDS011;36331;51.378;0.018;2023-04-06T12:37:08;20.48;;;5.45;;
26060;SDS011;36331;51.378;0.018;2023-04-06T12:39:37;20.15;;;5.38;;
26060;SDS011;36331;51.378;0.018;2023-04-06T12:42:08;25.33;;;6.13;;
26060;SDS011;36331;51.378;0.018;2023-04-06T12:44:40;19.58;;;5.20;;
26060;SDS011;36331;51.378;0.018;2023-04-06T12:47:10;20.35;;;5.03;;
26060;SDS011;36331;51.378;0.018;2023-04-06T12:49:40;14.77;;;3.83;;
26060;SDS011;36331;51.378;0.018;2023-04-06T12:52:11;20.83;;;5.45;;
26060;SDS011;36331;51.378;0.018;2023-04-06T12:54:41;17.55;;;4.45;;
26060;SDS011;36331;51.378;0.018;2023-04-06T12:57:13;17.63;;;4.73;;
26060;SDS011;36331;51.378;0.018;2023-04-06T12:59:42;17.35;;;5.07;;
26060;SDS011;36331;51.378;0.018;2023-04-06T13:02:12;23.63;;;6.30;;
26060;SDS011;36331;51.378;0.018;2023-04-06T13:04:44;19.25;;;5.05;;
26060;SDS011;36331;51.378;0.018;2023-04-06T13:07:13;19.83;;;4.78;;
26060;SDS011;36331;51.378;0.018;2023-04-06T13:09:43;15.77;;;4.00;;
26060;SDS011;36331;51.378;0.018;2023-04-06T13:12:17;23.80;;;5.90;;
26060;SDS011;36331;51.378;0.018;2023-04-06T13:14:47;22.27;;;5.55;;
26060;SDS011;36331;51.378;0.018;2023-04-06T13:19:49;25.02;;;6.28;;
26060;SDS011;36331;51.378;0.018;2023-04-06T13:22:23;18.65;;;4.43;;
26060;SDS011;36331;51.378;0.018;2023-04-06T13:24:55;20.52;;;5.32;;
26060;SDS011;36331;51.378;0.018;2023-04-06T13:29:56;15.23;;;4.00;;
26060;SDS011;36331;51.378;0.018;2023-04-06T13:32:27;22.38;;;5.93;;
26060;SDS011;36331;51.378;0.018;2023-04-06T13:34:57;20.90;;;4.93;;
26060;SDS011;36331;51.378;0.018;2023-04-06T13:37:27;20.30;;;5.35;;
26060;SDS011;36331;51.378;0.018;2023-04-06T13:39:56;21.35;;;5.70;;
26060;SDS011;36331;51.378;0.018;2023-04-06T13:42:27;22.58;;;5.63;;
26060;SDS011;36331;51.378;0.018;2023-04-06T13:44:59;18.92;;;5.28;;
26060;SDS011;36331;51.378;0.018;2023-04-06T13:47:29;25.00;;;6.28;;
26060;SDS011;36331;51.378;0.018;2023-04-06T13:50:00;26.15;;;6.47;;
26060;SDS011;36331;51.378;0.018;2023-04-06T13:52:32;23.23;;;5.85;;
26060;SDS011;36331;51.378;0.018;2023-04-06T13:55:06;29.33;;;6.63;;
26060;SDS011;36331;51.378;0.018;2023-04-06T13:57:37;17.50;;;4.28;;
26060;SDS011;36331;51.378;0.018;2023-04-06T14:00:08;21.20;;;5.35;;
26060;SDS011;36331;51.378;0.018;2023-04-06T14:02:44;20.20;;;5.32;;
26060;SDS011;36331;51.378;0.018;2023-04-06T14:05:14;22.73;;;5.45;;
26060;SDS011;36331;51.378;0.018;2023-04-06T14:07:45;23.40;;;5.82;;
26060;SDS011;36331;51.378;0.018;2023-04-06T14:10:14;19.25;;;4.85;;
26060;SDS011;36331;51.378;0.018;2023-04-06T14:12:44;18.08;;;4.72;;
26060;SDS011;36331;51.378;0.018;2023-04-06T14:15:15;19.60;;;4.43;;
26060;SDS011;36331;51.378;0.018;2023-04-06T14:17:44;19.92;;;4.97;;
26060;SDS011;36331;51.378;0.018;2023-04-06T14:20:14;15.50;;;4.07;;
26060;SDS011;36331;51.378;0.018;2023-04-06T14:22:43;26.95;;;6.32;;
26060;SDS011;36331;51.378;0.018;2023-04-06T14:25:14;29.25;;;7.00;;
26060;SDS011;36331;51.378;0.018;2023-04-06T14:27:46;24.55;;;6.53;;
26060;SDS011;36331;51.378;0.018;2023-04-06T14:30:21;25.13;;;6.10;;
26060;SDS011;36331;51.378;0.018;2023-04-06T14:32:51;20.30;;;4.93;;
26060;SDS011;36331;51.378;0.018;2023-04-06T14:35:20;22.70;;;5.65;;
26060;SDS011;36331;51.378;0.018;2023-04-06T14:37:50;19.80;;;5.03;;
26060;SDS011;36331;51.378;0.018;2023-04-06T14:40:20;22.02;;;5.55;;
26060;SDS011;36331;51.378;0.018;2023-04-06T14:42:52;20.60;;;5.38;;
26060;SDS011;36331;51.378;0.018;2023-04-06T14:45:28;20.27;;;4.95;;
26060;SDS011;36331;51.378;0.018;2023-04-06T14:47:58;24.00;;;5.93;;
26060;SDS011;36331;51.378;0.018;2023-04-06T14:50:28;24.48;;;6.13;;
26060;SDS011;36331;51.378;0.018;2023-04-06T14:52:58;21.38;;;5.38;;
26060;SDS011;36331;51.378;0.018;2023-04-06T14:55:28;22.23;;;5.38;;
26060;SDS011;36331;51.378;0.018;2023-04-06T14:57:58;24.38;;;5.97;;
26060;SDS011;36331;51.378;0.018;2023-04-06T15:00:29;24.15;;;6.30;;
26060;SDS011;36331;51.378;0.018;2023-04-06T15:02:58;28.02;;;6.80;;
26060;SDS011;36331;51.378;0.018;2023-04-06T15:05:29;28.67;;;6.55;;
26060;SDS011;36331;51.378;0.018;2023-04-06T15:08:01;25.17;;;6.30;;
26060;SDS011;36331;51.378;0.018;2023-04-06T15:10:30;25.85;;;6.35;;
26060;SDS011;36331;51.378;0.018;2023-04-06T15:13:02;25.38;;;6.65;;
26060;SDS011;36331;51.378;0.018;2023-04-06T15:15:33;25.55;;;6.15;;